createdAt,value
2018-06-08T00:01:26.666Z,25.43
2018-06-08T00:03:55.317Z,25.97
2018-06-08T00:06:24.173Z,34.70
2018-06-08T00:08:52.447Z,26.87
2018-06-08T00:11:20.838Z,26.13
2018-06-08T00:13:49.582Z,21.90
2018-06-08T00:16:24.672Z,24.90
2018-06-08T00:18:52.975Z,23.03
2018-06-08T00:21:21.364Z,19.10
2018-06-08T00:23:50.297Z,20.20
2018-06-08T00:26:19.189Z,20.30
2018-06-08T00:28:47.915Z,20.87
2018-06-08T00:31:16.171Z,22.23
2018-06-08T00:33:50.164Z,23.47
2018-06-08T00:36:18.296Z,23.43
2018-06-08T00:38:46.658Z,23.20
2018-06-08T00:41:15.027Z,20.93
2018-06-08T00:43:43.161Z,21.80
2018-06-08T00:46:11.685Z,20.97
2018-06-08T00:48:39.970Z,21.00
2018-06-08T00:51:08.087Z,20.57
2018-06-08T00:53:36.165Z,20.47
2018-06-08T00:56:04.397Z,21.20
2018-06-08T00:58:32.754Z,21.63
2018-06-08T01:01:00.823Z,21.07
2018-06-08T01:03:28.965Z,23.70
2018-06-08T01:05:57.227Z,21.40
2018-06-08T01:08:25.341Z,20.27
2018-06-08T01:10:53.470Z,20.77
2018-06-08T01:13:21.563Z,20.97
2018-06-08T01:15:49.803Z,22.87
2018-06-08T01:18:17.893Z,23.77
2018-06-08T01:20:46.058Z,25.07
2018-06-08T01:23:14.778Z,25.07
2018-06-08T01:25:42.878Z,26.23
2018-06-08T01:28:10.980Z,21.73
2018-06-08T01:30:39.139Z,20.33
2018-06-08T01:33:07.340Z,19.87
2018-06-08T01:35:35.582Z,20.53
2018-06-08T01:38:03.739Z,22.17
2018-06-08T01:40:31.844Z,20.80
2018-06-08T01:42:59.965Z,18.43
2018-06-08T01:45:28.115Z,19.57
2018-06-08T01:47:57.270Z,18.63
2018-06-08T01:50:25.414Z,19.00
2018-06-08T01:52:53.575Z,15.37
2018-06-08T01:55:21.855Z,17.93
2018-06-08T01:57:50.924Z,15.80
2018-06-08T02:00:19.185Z,13.00
2018-06-08T02:02:47.275Z,14.20
2018-06-08T02:05:16.008Z,14.40
2018-06-08T02:07:44.132Z,14.23
2018-06-08T02:10:12.303Z,14.63
2018-06-08T02:12:40.693Z,13.27
2018-06-08T02:15:08.846Z,12.73
2018-06-08T02:17:36.980Z,14.90
2018-06-08T02:20:05.071Z,13.57
2018-06-08T02:22:33.282Z,13.03
2018-06-08T02:25:01.410Z,12.97
2018-06-08T02:27:29.486Z,14.70
2018-06-08T02:29:57.572Z,16.73
2018-06-08T02:32:25.674Z,17.13
2018-06-08T02:34:53.803Z,17.50
2018-06-08T02:37:22.014Z,20.43
2018-06-08T02:39:50.197Z,23.67
2018-06-08T02:42:18.338Z,25.93
2018-06-08T02:44:46.540Z,25.43
2018-06-08T02:47:14.711Z,26.90
2018-06-08T02:49:42.883Z,34.53
2018-06-08T02:52:11.016Z,32.10
2018-06-08T02:54:39.122Z,31.80
2018-06-08T02:57:07.331Z,35.50
2018-06-08T02:59:35.459Z,29.60
2018-06-08T03:02:03.665Z,30.17
2018-06-08T03:04:31.732Z,30.33
2018-06-08T03:06:59.952Z,30.20
2018-06-08T03:09:28.057Z,33.17
2018-06-08T03:11:56.303Z,37.53
2018-06-08T03:14:24.720Z,30.57
2018-06-08T03:16:52.936Z,33.70
2018-06-08T03:19:22.233Z,31.87
2018-06-08T03:21:50.318Z,31.03
2018-06-08T03:24:18.407Z,30.37
2018-06-08T03:26:46.479Z,35.97
2018-06-08T03:29:14.621Z,31.33
2018-06-08T03:31:42.723Z,32.77
2018-06-08T03:34:10.876Z,32.57
2018-06-08T03:36:39.101Z,34.50
2018-06-08T03:39:08.232Z,27.67
2018-06-08T03:41:36.485Z,24.37
2018-06-08T03:44:04.629Z,22.23
2018-06-08T03:46:32.749Z,22.03
2018-06-08T03:49:00.967Z,22.63
2018-06-08T03:51:29.117Z,22.70
2018-06-08T03:53:57.748Z,19.70
2018-06-08T03:56:26.892Z,22.80
2018-06-08T03:58:55.086Z,23.17
2018-06-08T04:01:23.222Z,21.50
2018-06-08T04:03:51.412Z,20.87
2018-06-08T04:06:19.732Z,21.30
2018-06-08T04:08:48.083Z,19.67
2018-06-08T04:11:16.322Z,19.17
2018-06-08T04:13:45.022Z,19.47
2018-06-08T04:16:13.143Z,19.50
2018-06-08T04:18:43.063Z,20.70
2018-06-08T04:21:11.917Z,16.50
2018-06-08T04:23:40.323Z,17.60
2018-06-08T04:26:08.702Z,17.50
2018-06-08T04:28:36.907Z,16.83
2018-06-08T04:31:05.822Z,17.67
2018-06-08T04:33:34.240Z,15.80
2018-06-08T04:36:02.814Z,17.87
2018-06-08T04:38:31.043Z,20.07
2018-06-08T04:40:59.324Z,16.10
2018-06-08T04:43:27.526Z,20.73
2018-06-08T04:45:56.443Z,18.53
2018-06-08T04:48:24.899Z,18.47
2018-06-08T04:50:53.074Z,18.87
2018-06-08T04:53:21.706Z,19.57
2018-06-08T04:55:50.045Z,22.57
2018-06-08T04:58:18.386Z,23.50
2018-06-08T05:00:46.598Z,26.50
2018-06-08T05:03:14.863Z,21.90
2018-06-08T05:05:43.090Z,23.80
2018-06-08T05:08:11.712Z,22.67
2018-06-08T05:10:39.898Z,23.73
2018-06-08T05:13:08.107Z,22.20
2018-06-08T05:15:36.182Z,22.47
2018-06-08T05:18:04.411Z,21.10
2018-06-08T05:20:32.893Z,18.50
2018-06-08T05:23:00.990Z,23.47
2018-06-08T05:25:29.261Z,16.20
2018-06-08T05:27:57.473Z,17.03
2018-06-08T05:30:26.431Z,15.30
2018-06-08T05:32:54.570Z,15.43
2018-06-08T05:35:22.853Z,14.97
2018-06-08T05:37:51.065Z,15.13
2018-06-08T05:40:19.193Z,15.50
2018-06-08T05:42:47.395Z,15.53
2018-06-08T05:45:15.540Z,14.93
2018-06-08T05:47:43.678Z,12.90
2018-06-08T05:50:11.980Z,13.03
2018-06-08T05:52:40.128Z,13.70
2018-06-08T05:55:08.295Z,13.00
2018-06-08T05:57:37.021Z,11.50
2018-06-08T06:00:05.545Z,13.03
2018-06-08T06:02:33.790Z,10.57
2018-06-08T06:05:01.952Z,11.50
2018-06-08T06:07:30.079Z,10.37
2018-06-08T06:09:58.313Z,11.10
2018-06-08T06:12:26.475Z,9.10
2018-06-08T06:14:54.685Z,10.00
2018-06-08T06:17:22.794Z,10.43
2018-06-08T06:19:50.956Z,8.43
2018-06-08T06:22:19.114Z,9.30
2018-06-08T06:24:47.308Z,7.90
2018-06-08T06:27:15.498Z,8.67
2018-06-08T06:29:43.694Z,8.90
2018-06-08T06:32:11.819Z,7.70
2018-06-08T06:34:40.380Z,9.70
2018-06-08T06:37:08.692Z,8.37
2018-06-08T06:39:36.906Z,8.23
2018-06-08T06:42:05.187Z,7.70
2018-06-08T06:44:33.450Z,8.83
2018-06-08T06:47:01.665Z,8.33
2018-06-08T06:49:29.911Z,8.27
2018-06-08T06:51:58.109Z,9.03
2018-06-08T06:54:26.339Z,10.00
2018-06-08T06:56:54.654Z,10.20
2018-06-08T06:59:22.973Z,9.30
2018-06-08T07:01:51.164Z,10.27
2018-06-08T07:04:19.477Z,10.30
2018-06-08T07:06:47.519Z,11.73
2018-06-08T07:09:15.617Z,11.63
2018-06-08T07:11:44.040Z,11.50
2018-06-08T07:14:12.189Z,11.90
2018-06-08T07:16:40.437Z,12.70
2018-06-08T07:19:13.034Z,13.23
2018-06-08T07:21:41.160Z,14.50
2018-06-08T07:24:09.429Z,15.60
2018-06-08T07:26:37.678Z,15.67
2018-06-08T07:29:05.854Z,17.97
2018-06-08T07:31:34.089Z,18.30
2018-06-08T07:34:02.260Z,18.90
2018-06-08T07:36:30.553Z,19.10
2018-06-08T07:38:58.750Z,17.80
2018-06-08T07:41:26.994Z,18.83
2018-06-08T07:43:55.049Z,18.83
2018-06-08T07:46:23.303Z,20.37
2018-06-08T07:48:51.447Z,26.00
2018-06-08T07:51:19.683Z,23.37
2018-06-08T07:53:48.196Z,26.97
2018-06-08T07:56:16.472Z,27.07
2018-06-08T07:58:44.640Z,25.73
2018-06-08T08:01:12.790Z,24.80
2018-06-08T08:03:41.067Z,23.50
2018-06-08T08:06:09.281Z,23.00
2018-06-08T08:08:37.418Z,23.70
2018-06-08T08:11:05.545Z,22.60
2018-06-08T08:13:33.750Z,21.00
2018-06-08T08:16:01.823Z,21.73
2018-06-08T08:18:29.937Z,21.30
2018-06-08T08:20:58.156Z,22.97
2018-06-08T08:23:26.253Z,24.37
2018-06-08T08:25:55.139Z,24.70
2018-06-08T08:28:23.288Z,23.40
2018-06-08T08:30:51.802Z,24.07
2018-06-08T08:33:20.037Z,23.57
2018-06-08T08:35:48.235Z,25.77
2018-06-08T08:38:16.335Z,24.63
2018-06-08T08:40:44.518Z,24.00
2018-06-08T08:43:12.667Z,24.10
2018-06-08T08:45:40.673Z,24.67
2018-06-08T08:48:08.748Z,24.60
2018-06-08T08:50:36.821Z,25.20
2018-06-08T08:53:05.124Z,24.73
2018-06-08T08:55:33.496Z,24.80
2018-06-08T08:58:01.629Z,25.03
2018-06-08T09:00:29.794Z,24.60
2018-06-08T09:02:58.006Z,24.93
2018-06-08T09:05:26.427Z,22.43
2018-06-08T09:07:54.525Z,17.60
2018-06-08T09:10:22.697Z,17.80
2018-06-08T09:12:50.804Z,17.90
2018-06-08T09:15:19.004Z,19.13
2018-06-08T09:17:47.370Z,21.47
2018-06-08T09:20:15.487Z,23.57
2018-06-08T09:22:43.565Z,22.77
2018-06-08T09:25:11.794Z,20.60
2018-06-08T09:27:39.951Z,21.03
2018-06-08T09:30:08.143Z,20.23
2018-06-08T09:32:36.289Z,21.40
2018-06-08T09:35:04.483Z,21.73
2018-06-08T09:37:32.581Z,20.47
2018-06-08T09:40:00.797Z,19.53
2018-06-08T09:42:28.921Z,18.77
2018-06-08T09:44:57.485Z,18.30
2018-06-08T09:47:25.596Z,17.50
2018-06-08T09:49:53.702Z,16.90
2018-06-08T09:52:21.851Z,17.50
2018-06-08T09:54:50.021Z,15.20
2018-06-08T09:57:18.136Z,15.67
2018-06-08T09:59:46.224Z,16.57
2018-06-08T10:02:14.428Z,18.47
2018-06-08T10:04:42.537Z,18.23
2018-06-08T10:07:10.756Z,19.20
2018-06-08T10:09:38.836Z,19.30
2018-06-08T10:12:07.029Z,18.77
2018-06-08T10:14:35.273Z,19.30
2018-06-08T10:17:03.413Z,19.67
2018-06-08T10:19:31.522Z,19.40
2018-06-08T10:21:59.963Z,17.77
2018-06-08T10:24:28.138Z,16.90
2018-06-08T10:26:56.972Z,18.17
2018-06-08T10:29:29.536Z,17.40
2018-06-08T10:31:57.785Z,21.10
2018-06-08T10:34:26.247Z,20.27
2018-06-08T10:36:54.578Z,16.17
2018-06-08T10:39:22.698Z,17.77
2018-06-08T10:41:50.808Z,17.70
2018-06-08T10:44:18.978Z,17.70
2018-06-08T10:46:47.149Z,17.70
2018-06-08T10:49:15.385Z,19.93
2018-06-08T10:51:44.233Z,17.03
2018-06-08T10:54:13.103Z,18.13
2018-06-08T10:56:41.241Z,17.57
2018-06-08T10:59:09.364Z,18.87
2018-06-08T11:01:37.505Z,16.50
2018-06-08T11:04:05.742Z,17.13
2018-06-08T11:06:33.921Z,16.63
2018-06-08T11:09:02.533Z,16.33
2018-06-08T11:11:30.602Z,16.63
2018-06-08T11:13:58.828Z,17.30
2018-06-08T11:16:27.032Z,16.23
2018-06-08T11:18:55.209Z,15.90
2018-06-08T11:21:23.376Z,17.60
2018-06-08T11:23:51.598Z,16.83
2018-06-08T11:26:19.755Z,17.90
2018-06-08T11:28:48.024Z,17.97
2018-06-08T11:31:16.102Z,18.40
2018-06-08T11:33:44.279Z,16.63
2018-06-08T11:36:12.422Z,17.93
2018-06-08T11:38:40.637Z,17.67
2018-06-08T11:41:08.897Z,17.17
2018-06-08T11:43:37.117Z,17.60
2018-06-08T11:46:06.162Z,19.60
2018-06-08T11:48:34.250Z,16.43
2018-06-08T11:51:02.473Z,16.37
2018-06-08T11:53:30.653Z,18.37
2018-06-08T11:55:58.816Z,17.63
2018-06-08T11:58:26.829Z,17.00
2018-06-08T12:01:01.679Z,15.50
2018-06-08T12:03:29.930Z,14.80
2018-06-08T12:05:58.106Z,15.37
2018-06-08T12:08:26.303Z,16.33
2018-06-08T12:10:54.577Z,16.00
2018-06-08T12:13:22.685Z,15.80
2018-06-08T12:15:50.852Z,15.90
2018-06-08T12:18:18.989Z,16.37
2018-06-08T12:20:47.197Z,16.33
2018-06-08T12:23:15.226Z,18.47
2018-06-08T12:25:43.614Z,17.53
2018-06-08T12:28:12.027Z,15.73
2018-06-08T12:30:40.317Z,14.13
2018-06-08T12:33:08.670Z,14.77
2018-06-08T12:35:36.902Z,14.87
2018-06-08T12:38:05.145Z,15.53
2018-06-08T12:40:33.316Z,14.33
2018-06-08T12:43:01.553Z,13.90
2018-06-08T12:45:29.699Z,14.83
2018-06-08T12:47:57.839Z,13.43
2018-06-08T12:50:26.027Z,14.73
2018-06-08T12:52:54.095Z,14.90
2018-06-08T12:55:22.273Z,14.97
2018-06-08T12:57:50.489Z,14.00
2018-06-08T13:00:18.645Z,13.37
2018-06-08T13:02:46.750Z,12.37
2018-06-08T13:05:15.191Z,12.53
2018-06-08T13:07:43.441Z,13.40
2018-06-08T13:10:11.984Z,12.63
2018-06-08T13:12:40.285Z,13.20
2018-06-08T13:15:08.470Z,13.53
2018-06-08T13:17:36.616Z,14.27
2018-06-08T13:20:05.031Z,12.93
2018-06-08T13:22:33.597Z,13.10
2018-06-08T13:25:01.787Z,13.10
2018-06-08T13:27:30.061Z,12.97
2018-06-08T13:29:58.226Z,12.37
2018-06-08T13:32:26.462Z,12.57
2018-06-08T13:34:54.625Z,12.67
2018-06-08T13:37:22.854Z,12.00
2018-06-08T13:39:51.049Z,11.20
2018-06-08T13:42:19.387Z,11.93
2018-06-08T13:44:47.626Z,11.30
2018-06-08T13:47:16.313Z,11.73
2018-06-08T13:49:44.561Z,13.03
2018-06-08T13:52:12.775Z,13.00
2018-06-08T13:54:41.014Z,13.50
2018-06-08T13:57:09.253Z,13.40
2018-06-08T13:59:37.498Z,13.23
2018-06-08T14:02:05.600Z,12.30
2018-06-08T14:04:33.821Z,12.63
2018-06-08T14:07:02.036Z,12.30
2018-06-08T14:09:30.244Z,13.27
2018-06-08T14:11:58.478Z,13.33
2018-06-08T14:14:26.590Z,14.20
2018-06-08T14:16:54.846Z,13.23
2018-06-08T14:19:23.106Z,14.13
2018-06-08T14:21:51.227Z,14.60
2018-06-08T14:24:19.982Z,12.33
2018-06-08T14:26:48.169Z,13.03
2018-06-08T14:29:16.331Z,12.77
2018-06-08T14:31:44.558Z,11.73
2018-06-08T14:34:12.762Z,13.23
2018-06-08T14:36:40.994Z,11.60
2018-06-08T14:39:09.169Z,11.60
2018-06-08T14:41:37.348Z,13.03
2018-06-08T14:44:05.509Z,12.30
2018-06-08T14:46:33.702Z,12.10
2018-06-08T14:49:02.066Z,12.87
2018-06-08T14:51:30.427Z,11.83
2018-06-08T14:53:58.624Z,12.97
2018-06-08T14:56:26.747Z,12.87
2018-06-08T14:58:54.875Z,12.63
2018-06-08T15:01:23.579Z,12.57
2018-06-08T15:03:51.778Z,12.10
2018-06-08T15:06:19.932Z,12.60
2018-06-08T15:08:48.187Z,12.10
2018-06-08T15:11:16.375Z,12.23
2018-06-08T15:13:44.656Z,12.40
2018-06-08T15:16:12.953Z,11.47
2018-06-08T15:18:41.207Z,13.17
2018-06-08T15:21:09.362Z,11.73
2018-06-08T15:23:37.805Z,13.30
2018-06-08T15:26:06.009Z,12.83
2018-06-08T15:28:34.144Z,11.50
2018-06-08T15:31:02.353Z,11.63
2018-06-08T15:33:30.456Z,11.00
2018-06-08T15:35:58.725Z,12.73
2018-06-08T15:38:27.390Z,11.90
2018-06-08T15:40:55.597Z,13.50
2018-06-08T15:43:23.830Z,12.37
2018-06-08T15:45:52.109Z,12.57
2018-06-08T15:48:20.346Z,11.50
2018-06-08T15:50:48.491Z,13.13
2018-06-08T15:53:16.657Z,12.53
2018-06-08T15:55:44.820Z,12.17
2018-06-08T15:58:12.915Z,11.87
2018-06-08T16:00:41.243Z,12.63
2018-06-08T16:03:09.370Z,12.50
2018-06-08T16:05:37.573Z,12.23
2018-06-08T16:08:05.859Z,12.70
2018-06-08T16:10:34.024Z,12.33
2018-06-08T16:13:02.270Z,11.90
2018-06-08T16:15:30.950Z,12.87
2018-06-08T16:17:59.186Z,11.90
2018-06-08T16:20:27.623Z,11.90
2018-06-08T16:22:55.772Z,11.77
2018-06-08T16:25:23.972Z,10.77
2018-06-08T16:27:56.322Z,10.50
2018-06-08T16:30:24.530Z,11.13
2018-06-08T16:32:52.669Z,9.83
2018-06-08T16:35:20.937Z,9.43
2018-06-08T16:37:49.307Z,10.00
2018-06-08T16:40:17.656Z,9.27
2018-06-08T16:42:45.951Z,9.20
2018-06-08T16:45:14.216Z,9.63
2018-06-08T16:47:54.755Z,9.50
2018-06-08T16:50:22.982Z,8.87
2018-06-08T16:52:51.254Z,8.97
2018-06-08T16:55:19.580Z,8.43
2018-06-08T16:57:47.835Z,11.03
2018-06-08T17:00:15.957Z,10.80
2018-06-08T17:02:44.157Z,13.10
2018-06-08T17:05:12.408Z,11.00
2018-06-08T17:07:40.516Z,9.70
2018-06-08T17:10:08.716Z,9.30
2018-06-08T17:12:36.851Z,10.23
2018-06-08T17:15:05.173Z,9.50
2018-06-08T17:17:33.646Z,9.77
2018-06-08T17:20:01.891Z,10.90
2018-06-08T17:22:30.119Z,9.37
2018-06-08T17:24:58.328Z,9.77
2018-06-08T17:27:26.732Z,9.53
2018-06-08T17:29:54.938Z,10.17
2018-06-08T17:32:23.081Z,9.20
2018-06-08T17:34:51.284Z,8.70
2018-06-08T17:37:19.523Z,9.37
2018-06-08T17:39:47.739Z,8.73
2018-06-08T17:42:15.929Z,9.70
2018-06-08T17:44:44.184Z,9.07
2018-06-08T17:47:12.372Z,9.03
2018-06-08T17:49:40.682Z,9.87
2018-06-08T17:52:08.819Z,9.40
2018-06-08T17:54:37.861Z,9.87
2018-06-08T17:57:06.282Z,10.30
2018-06-08T17:59:34.739Z,10.77
2018-06-08T18:02:03.214Z,10.27
2018-06-08T18:04:32.236Z,9.97
2018-06-08T18:07:00.512Z,10.03
2018-06-08T18:09:29.251Z,8.43
2018-06-08T18:11:57.631Z,8.47
2018-06-08T18:14:25.905Z,9.57
2018-06-08T18:16:54.227Z,8.73
2018-06-08T18:19:22.477Z,8.77
2018-06-08T18:21:50.853Z,9.00
2018-06-08T18:24:19.011Z,8.53
2018-06-08T18:26:47.217Z,9.10
2018-06-08T18:29:15.512Z,9.90
2018-06-08T18:31:43.956Z,9.37
2018-06-08T18:34:12.321Z,10.00
2018-06-08T18:36:41.205Z,10.53
2018-06-08T18:39:09.438Z,10.57
2018-06-08T18:41:37.590Z,10.97
2018-06-08T18:44:05.764Z,11.73
2018-06-08T18:46:34.038Z,10.67
2018-06-08T18:49:02.432Z,11.23
2018-06-08T18:51:30.782Z,10.30
2018-06-08T18:53:59.021Z,11.37
2018-06-08T18:56:27.158Z,11.10
2018-06-08T18:58:55.273Z,12.00
2018-06-08T19:01:23.465Z,11.37
2018-06-08T19:03:52.634Z,10.50
2018-06-08T19:06:20.766Z,11.13
2018-06-08T19:08:48.930Z,11.87
2018-06-08T19:11:17.180Z,12.60
2018-06-08T19:13:45.570Z,13.30
2018-06-08T19:16:13.824Z,12.00
2018-06-08T19:18:42.020Z,12.83
2018-06-08T19:21:10.192Z,13.10
2018-06-08T19:23:38.603Z,14.13
2018-06-08T19:26:06.878Z,12.40
2018-06-08T19:28:35.154Z,11.87
2018-06-08T19:31:03.460Z,11.97
2018-06-08T19:33:31.550Z,10.27
2018-06-08T19:35:59.862Z,10.57
2018-06-08T19:38:28.140Z,12.40
2018-06-08T19:40:56.362Z,10.40
2018-06-08T19:43:24.536Z,11.67
2018-06-08T19:45:52.873Z,10.37
2018-06-08T19:48:21.040Z,10.30
2018-06-08T19:50:49.258Z,12.33
2018-06-08T19:53:17.573Z,9.60
2018-06-08T19:55:46.156Z,12.03
2018-06-08T19:58:14.322Z,13.97
2018-06-08T20:00:42.462Z,13.20
2018-06-08T20:03:10.699Z,14.87
2018-06-08T20:05:38.948Z,12.23
2018-06-08T20:08:07.250Z,12.50
2018-06-08T20:10:35.737Z,13.23
2018-06-08T20:13:04.054Z,13.10
2018-06-08T20:15:32.345Z,14.33
2018-06-08T20:18:00.531Z,15.10
2018-06-08T20:20:28.779Z,16.70
2018-06-08T20:22:56.996Z,13.90
2018-06-08T20:25:25.241Z,15.70
2018-06-08T20:27:53.440Z,14.60
2018-06-08T20:30:21.699Z,15.80
2018-06-08T20:32:50.536Z,15.00
2018-06-08T20:35:18.738Z,15.50
2018-06-08T20:37:47.289Z,15.97
2018-06-08T20:40:15.478Z,15.73
2018-06-08T20:42:43.703Z,16.60
2018-06-08T20:45:11.994Z,16.10
2018-06-08T20:47:40.114Z,17.63
2018-06-08T20:50:08.965Z,16.60
2018-06-08T20:52:37.104Z,18.87
2018-06-08T20:55:05.409Z,19.60
2018-06-08T20:57:33.562Z,19.63
2018-06-08T21:00:01.722Z,18.57
2018-06-08T21:02:29.984Z,18.97
2018-06-08T21:04:58.122Z,18.33
2018-06-08T21:07:26.320Z,18.17
2018-06-08T21:09:54.989Z,19.50
2018-06-08T21:12:23.161Z,18.40
2018-06-08T21:14:51.231Z,19.93
2018-06-08T21:17:19.428Z,18.30
2018-06-08T21:19:47.782Z,18.00
2018-06-08T21:22:15.959Z,18.17
2018-06-08T21:24:45.292Z,19.60
2018-06-08T21:27:13.453Z,16.67
2018-06-08T21:29:41.601Z,21.63
2018-06-08T21:32:10.581Z,19.37
2018-06-08T21:34:38.591Z,19.60
2018-06-08T21:37:06.858Z,20.00
2018-06-08T21:39:35.010Z,18.20
2018-06-08T21:42:03.147Z,20.27
2018-06-08T21:44:31.376Z,19.20
2018-06-08T21:46:59.540Z,19.50
2018-06-08T21:49:27.830Z,18.80
2018-06-08T21:51:56.410Z,20.00
2018-06-08T21:54:24.649Z,21.20
2018-06-08T21:56:52.823Z,19.23
2018-06-08T21:59:21.216Z,20.70
2018-06-08T22:01:50.162Z,20.93
2018-06-08T22:04:18.400Z,19.40
2018-06-08T22:06:46.661Z,20.50
2018-06-08T22:09:17.727Z,21.50
2018-06-08T22:11:46.239Z,20.77
2018-06-08T22:14:14.565Z,18.43
2018-06-08T22:16:42.848Z,21.90
2018-06-08T22:19:11.095Z,21.03
2018-06-08T22:21:39.393Z,19.80
2018-06-08T22:24:07.580Z,21.43
2018-06-08T22:26:35.919Z,21.40
2018-06-08T22:29:04.074Z,20.77
2018-06-08T22:31:32.290Z,21.30
2018-06-08T22:34:00.967Z,20.53
2018-06-08T22:36:29.169Z,22.77
2018-06-08T22:38:57.487Z,23.47
2018-06-08T22:41:25.678Z,25.03
2018-06-08T22:43:53.822Z,26.53
2018-06-08T22:46:22.111Z,24.40
2018-06-08T22:48:50.357Z,22.17
2018-06-08T22:51:18.507Z,23.93
2018-06-08T22:53:46.635Z,21.60
2018-06-08T22:56:14.973Z,23.60
2018-06-08T22:58:43.107Z,25.60
2018-06-08T23:01:11.293Z,23.73
2018-06-08T23:03:39.481Z,24.23
2018-06-08T23:06:07.642Z,23.10
2018-06-08T23:08:40.392Z,23.53
2018-06-08T23:11:08.998Z,20.17
2018-06-08T23:13:37.302Z,22.27
2018-06-08T23:16:07.137Z,23.27
2018-06-08T23:18:35.486Z,21.30
2018-06-08T23:21:04.150Z,22.83
2018-06-08T23:23:32.539Z,25.00
2018-06-08T23:26:01.002Z,23.83
2018-06-08T23:28:29.403Z,22.43
2018-06-08T23:30:58.181Z,25.73
2018-06-08T23:33:27.081Z,25.27
2018-06-08T23:35:56.533Z,24.43
2018-06-08T23:38:24.896Z,24.03
2018-06-08T23:40:53.023Z,25.07
2018-06-08T23:43:21.150Z,24.37
2018-06-08T23:45:49.382Z,24.90
2018-06-08T23:48:17.686Z,22.93
2018-06-08T23:50:45.973Z,24.47
2018-06-08T23:53:14.485Z,24.27
2018-06-08T23:55:43.578Z,26.40
2018-06-08T23:58:14.483Z,23.33
